createdAt,value
2019-04-30T00:03:46.085Z,66.23
2019-04-30T00:07:54.194Z,66.12
2019-04-30T00:12:01.012Z,65.95
2019-04-30T00:16:02.098Z,65.98
2019-04-30T00:20:06.664Z,66.08
2019-04-30T00:24:10.930Z,65.97
2019-04-30T00:28:15.495Z,66.12
2019-04-30T00:32:19.978Z,65.78
2019-04-30T00:36:28.966Z,65.59
2019-04-30T00:40:30.345Z,65.55
2019-04-30T00:44:35.677Z,65.43
2019-04-30T00:48:39.924Z,65.50
2019-04-30T00:52:45.749Z,65.50
2019-04-30T00:56:50.083Z,65.55
2019-04-30T01:01:08.168Z,65.66
2019-04-30T01:05:16.084Z,65.63
2019-04-30T01:09:20.544Z,65.52
2019-04-30T01:13:24.794Z,65.62
2019-04-30T01:17:30.005Z,65.68
2019-04-30T01:21:34.395Z,65.62
2019-04-30T01:25:38.927Z,65.87
2019-04-30T01:29:44.360Z,65.85
2019-04-30T01:33:49.014Z,65.99
2019-04-30T01:37:53.531Z,65.95
2019-04-30T01:41:58.677Z,66.08
2019-04-30T01:46:12.162Z,65.91
2019-04-30T01:50:10.139Z,65.96
2019-04-30T01:54:21.143Z,66.17
2019-04-30T01:58:30.209Z,66.12
2019-04-30T02:02:36.194Z,66.51
2019-04-30T02:06:40.460Z,66.28
2019-04-30T02:10:44.704Z,66.38
2019-04-30T02:14:49.466Z,66.53
2019-04-30T02:18:55.124Z,66.61
2019-04-30T02:22:59.440Z,66.51
2019-04-30T02:27:03.940Z,66.73
2019-04-30T02:31:09.239Z,66.67
2019-04-30T02:35:35.997Z,66.73
2019-04-30T02:39:40.520Z,66.97
2019-04-30T02:43:45.685Z,67.29
2019-04-30T02:47:50.256Z,67.89
2019-04-30T02:51:56.457Z,68.18
2019-04-30T02:56:03.732Z,68.15
2019-04-30T03:00:16.073Z,68.56
2019-04-30T03:04:20.355Z,68.88
2019-04-30T03:08:24.578Z,69.29
2019-04-30T03:12:33.197Z,69.52
2019-04-30T03:16:52.670Z,70.00
2019-04-30T03:21:02.520Z,69.95
2019-04-30T03:25:09.334Z,70.20
2019-04-30T03:29:12.892Z,69.94
2019-04-30T03:33:17.120Z,70.10
2019-04-30T03:37:21.378Z,70.47
2019-04-30T03:41:25.651Z,70.44
2019-04-30T03:45:30.243Z,70.57
2019-04-30T03:49:34.619Z,70.72
2019-04-30T03:53:42.400Z,71.01
2019-04-30T03:57:44.838Z,70.77
2019-04-30T04:02:12.199Z,70.95
2019-04-30T04:06:24.445Z,70.92
2019-04-30T04:10:50.206Z,71.10
2019-04-30T04:14:53.661Z,71.28
2019-04-30T04:18:59.478Z,71.64
2019-04-30T04:23:04.151Z,71.37
2019-04-30T04:27:09.663Z,71.65
2019-04-30T04:31:14.097Z,71.70
2019-04-30T04:35:19.792Z,71.81
2019-04-30T04:39:24.259Z,71.87
2019-04-30T04:43:30.057Z,71.86
2019-04-30T04:47:34.534Z,71.79
2019-04-30T04:51:42.212Z,72.29
2019-04-30T04:55:45.184Z,72.27
2019-04-30T04:59:50.122Z,72.51
2019-04-30T05:03:54.583Z,72.06
2019-04-30T05:07:58.951Z,73.03
2019-04-30T05:12:03.197Z,72.71
2019-04-30T05:16:09.219Z,72.89
2019-04-30T05:20:13.759Z,72.72
2019-04-30T05:24:19.055Z,73.14
2019-04-30T05:28:23.385Z,73.20
2019-04-30T05:32:29.221Z,73.60
2019-04-30T05:36:33.660Z,73.29
2019-04-30T05:40:39.844Z,73.19
2019-04-30T05:44:43.950Z,73.38
2019-04-30T05:48:49.515Z,73.91
2019-04-30T05:52:53.843Z,73.80
2019-04-30T05:56:59.394Z,73.93
2019-04-30T06:01:03.746Z,73.87
2019-04-30T06:05:08.842Z,74.19
2019-04-30T06:09:31.108Z,74.78
2019-04-30T06:13:31.936Z,74.60
2019-04-30T06:17:35.968Z,74.57
2019-04-30T06:21:40.265Z,74.56
2019-04-30T06:25:56.407Z,74.41
2019-04-30T06:29:51.220Z,74.61
2019-04-30T06:33:55.503Z,74.59
2019-04-30T06:37:59.893Z,74.62
2019-04-30T06:42:08.903Z,74.70
2019-04-30T06:46:11.519Z,75.00
2019-04-30T06:50:16.410Z,74.83
2019-04-30T06:54:21.069Z,74.94
2019-04-30T06:58:25.328Z,74.68
2019-04-30T07:02:30.865Z,74.72
2019-04-30T07:06:37.130Z,74.71
2019-04-30T07:10:53.035Z,74.59
2019-04-30T07:14:49.443Z,74.77
2019-04-30T07:18:53.730Z,74.94
2019-04-30T07:23:02.566Z,75.16
2019-04-30T07:27:04.206Z,75.22
2019-04-30T07:31:14.118Z,75.12
2019-04-30T07:35:14.974Z,75.27
2019-04-30T07:39:19.339Z,75.44
2019-04-30T07:43:23.614Z,75.57
2019-04-30T07:47:29.628Z,75.34
2019-04-30T07:51:38.059Z,75.71
2019-04-30T07:55:39.956Z,75.63
2019-04-30T07:59:44.613Z,75.72
2019-04-30T08:04:08.872Z,75.80
2019-04-30T08:08:20.905Z,76.17
2019-04-30T08:12:25.942Z,76.09
2019-04-30T08:16:25.202Z,76.41
2019-04-30T08:20:29.592Z,76.08
2019-04-30T08:24:33.957Z,76.04
2019-04-30T08:28:38.705Z,75.97
2019-04-30T08:32:43.116Z,76.33
2019-04-30T08:36:48.932Z,76.13
2019-04-30T08:40:58.115Z,76.30
2019-04-30T08:44:59.740Z,76.21
2019-04-30T08:49:04.078Z,76.37
2019-04-30T08:53:10.460Z,76.53
2019-04-30T08:57:14.393Z,76.38
2019-04-30T09:01:19.607Z,76.13
2019-04-30T09:05:31.587Z,76.32
2019-04-30T09:09:35.835Z,76.55
2019-04-30T09:13:40.511Z,76.74
2019-04-30T09:17:58.152Z,77.01
2019-04-30T09:21:51.149Z,77.16
2019-04-30T09:26:04.496Z,77.17
2019-04-30T09:30:10.436Z,77.17
2019-04-30T09:34:18.014Z,77.23
2019-04-30T09:38:20.648Z,77.75
2019-04-30T09:42:24.879Z,77.43
2019-04-30T09:46:29.982Z,77.62
2019-04-30T09:50:34.832Z,77.66
2019-04-30T09:54:39.964Z,77.95
2019-04-30T09:58:44.560Z,77.72
2019-04-30T10:02:49.020Z,77.96
2019-04-30T10:06:53.569Z,78.33
2019-04-30T10:11:20.063Z,78.33
2019-04-30T10:15:51.116Z,77.93
2019-04-30T10:19:55.309Z,78.55
2019-04-30T10:24:12.349Z,78.64
2019-04-30T10:28:06.213Z,78.33
2019-04-30T10:32:11.502Z,78.50
2019-04-30T10:36:15.778Z,78.53
2019-04-30T10:40:20.710Z,78.17
2019-04-30T10:44:24.972Z,78.21
2019-04-30T10:48:29.434Z,78.34
2019-04-30T10:52:33.673Z,78.73
2019-04-30T10:56:38.216Z,78.66
2019-04-30T11:00:42.886Z,79.03
2019-04-30T11:04:47.414Z,79.03
2019-04-30T11:08:51.689Z,79.36
2019-04-30T11:12:56.021Z,79.49
2019-04-30T11:17:00.846Z,79.47
2019-04-30T11:21:05.786Z,79.70
2019-04-30T11:25:10.812Z,80.37
2019-04-30T11:29:15.352Z,79.81
2019-04-30T11:33:19.999Z,80.22
2019-04-30T11:37:24.391Z,80.80
2019-04-30T11:41:32.940Z,80.93
2019-04-30T11:46:18.690Z,80.88
2019-04-30T11:50:23.360Z,80.72
2019-04-30T11:54:29.712Z,80.81
2019-04-30T11:58:33.735Z,80.81
2019-04-30T12:02:43.775Z,80.93
2019-04-30T12:06:48.046Z,81.49
2019-04-30T12:11:04.635Z,81.11
2019-04-30T12:15:09.379Z,82.14
2019-04-30T12:19:13.769Z,82.32
2019-04-30T12:23:18.996Z,82.46
2019-04-30T12:27:23.698Z,82.30
2019-04-30T12:31:29.737Z,82.51
2019-04-30T12:35:34.115Z,81.69
2019-04-30T12:39:39.480Z,81.84
2019-04-30T12:43:43.907Z,81.65
2019-04-30T12:47:52.557Z,82.59
2019-04-30T12:52:05.111Z,82.59
2019-04-30T12:56:34.474Z,82.13
2019-04-30T13:00:39.235Z,82.16
2019-04-30T13:04:43.485Z,82.27
2019-04-30T13:08:51.521Z,82.23
2019-04-30T13:12:54.257Z,81.94
2019-04-30T13:16:59.059Z,82.23
2019-04-30T13:21:03.471Z,81.75
2019-04-30T13:25:09.286Z,82.10
2019-04-30T13:29:18.585Z,82.34
2019-04-30T13:33:35.335Z,82.34
2019-04-30T13:37:48.918Z,81.61
2019-04-30T13:41:59.226Z,81.71
2019-04-30T13:46:03.459Z,82.20
2019-04-30T13:50:09.340Z,82.30
2019-04-30T13:54:13.738Z,82.04
2019-04-30T13:58:18.068Z,82.62
2019-04-30T14:02:22.282Z,82.31
2019-04-30T14:06:28.944Z,82.03
2019-04-30T14:10:39.282Z,82.07
2019-04-30T14:14:43.626Z,82.05
2019-04-30T14:18:48.762Z,81.89
2019-04-30T14:22:53.295Z,81.62
2019-04-30T14:26:59.064Z,81.76
2019-04-30T14:31:04.059Z,81.57
2019-04-30T14:35:09.155Z,81.52
2019-04-30T14:39:16.992Z,81.32
2019-04-30T14:43:25.777Z,81.31
2019-04-30T14:47:50.686Z,81.47
2019-04-30T14:51:55.398Z,81.61
2019-04-30T14:56:19.256Z,81.57
2019-04-30T15:00:36.108Z,81.43
2019-04-30T15:04:40.362Z,81.27
2019-04-30T15:08:44.615Z,81.55
2019-04-30T15:12:48.840Z,81.36
2019-04-30T15:16:53.756Z,81.55
2019-04-30T15:20:59.502Z,81.47
2019-04-30T15:25:03.864Z,81.13
2019-04-30T15:29:12.381Z,81.09
2019-04-30T15:33:36.349Z,81.26
2019-04-30T15:37:42.272Z,81.26
2019-04-30T15:41:46.625Z,81.13
2019-04-30T15:45:50.955Z,81.11
2019-04-30T15:49:55.216Z,80.84
2019-04-30T15:53:59.610Z,80.76
2019-04-30T15:58:10.139Z,80.63
2019-04-30T16:02:22.483Z,80.52
2019-04-30T16:06:28.475Z,80.42
2019-04-30T16:11:10.256Z,80.21
2019-04-30T16:15:13.401Z,80.14
2019-04-30T16:19:19.536Z,80.34
2019-04-30T16:23:24.241Z,80.09
2019-04-30T16:27:29.069Z,79.81
2019-04-30T16:31:33.455Z,79.13
2019-04-30T16:35:38.686Z,77.88
2019-04-30T16:39:42.996Z,77.94
2019-04-30T16:43:48.798Z,78.01
2019-04-30T16:47:53.565Z,78.08
2019-04-30T16:52:01.258Z,77.88
2019-04-30T16:56:04.197Z,77.99
2019-04-30T17:00:10.932Z,78.14
2019-04-30T17:04:29.351Z,77.97
2019-04-30T17:08:52.110Z,77.85
2019-04-30T17:13:18.948Z,77.98
2019-04-30T17:17:23.406Z,77.87
2019-04-30T17:21:29.647Z,77.72
2019-04-30T17:25:34.062Z,77.81
2019-04-30T17:29:38.319Z,77.69
2019-04-30T17:33:42.544Z,77.74
2019-04-30T17:37:46.925Z,77.86
2019-04-30T17:41:51.321Z,78.23
2019-04-30T17:45:55.947Z,79.30
2019-04-30T17:50:00.678Z,79.08
2019-04-30T17:54:14.632Z,78.34
2019-04-30T17:58:20.611Z,78.41
2019-04-30T18:02:39.208Z,78.46
2019-04-30T18:06:43.162Z,78.30
2019-04-30T18:10:47.684Z,78.20
2019-04-30T18:14:52.352Z,77.97
2019-04-30T18:19:06.198Z,77.74
2019-04-30T18:23:41.584Z,77.62
2019-04-30T18:27:53.349Z,77.37
2019-04-30T18:31:59.851Z,77.16
2019-04-30T18:36:04.019Z,77.21
2019-04-30T18:40:09.584Z,77.06
2019-04-30T18:44:14.522Z,77.49
2019-04-30T18:48:19.498Z,77.52
2019-04-30T18:52:24.217Z,77.66
2019-04-30T18:56:29.015Z,77.77
2019-04-30T19:00:44.008Z,77.75
2019-04-30T19:04:49.550Z,77.59
2019-04-30T19:09:04.308Z,77.67
2019-04-30T19:13:29.904Z,77.82
2019-04-30T19:17:52.328Z,77.88
2019-04-30T19:21:58.593Z,77.77
2019-04-30T19:26:02.655Z,77.46
2019-04-30T19:30:09.293Z,77.29
2019-04-30T19:34:13.831Z,77.20
2019-04-30T19:38:18.198Z,77.01
2019-04-30T19:42:23.186Z,76.89
2019-04-30T19:46:29.452Z,76.74
2019-04-30T19:50:34.660Z,76.59
2019-04-30T19:54:39.396Z,76.43
2019-04-30T19:58:55.472Z,76.06
2019-04-30T20:02:49.956Z,75.87
2019-04-30T20:06:54.964Z,75.81
2019-04-30T20:10:59.499Z,75.72
2019-04-30T20:15:15.946Z,75.56
2019-04-30T20:19:09.919Z,75.46
2019-04-30T20:23:14.328Z,75.25
2019-04-30T20:27:19.127Z,74.97
2019-04-30T20:31:23.464Z,74.71
2019-04-30T20:35:28.093Z,74.53
2019-04-30T20:39:41.902Z,74.46
2019-04-30T20:43:46.427Z,74.42
2019-04-30T20:47:51.079Z,74.26
2019-04-30T20:51:58.846Z,74.28
2019-04-30T20:56:03.103Z,74.28
2019-04-30T21:00:08.473Z,73.99
2019-04-30T21:04:12.688Z,73.83
2019-04-30T21:08:17.425Z,73.51
2019-04-30T21:12:21.670Z,73.47
2019-04-30T21:16:25.955Z,73.29
2019-04-30T21:20:30.187Z,73.20
2019-04-30T21:24:34.423Z,72.97
2019-04-30T21:28:39.348Z,72.73
2019-04-30T21:32:56.341Z,72.33
2019-04-30T21:37:01.037Z,72.19
2019-04-30T21:41:05.252Z,72.00
2019-04-30T21:45:09.533Z,71.93
2019-04-30T21:49:13.818Z,71.76
2019-04-30T21:53:19.566Z,71.76
2019-04-30T21:57:24.695Z,71.33
2019-04-30T22:01:33.293Z,71.50
2019-04-30T22:05:39.127Z,71.24
2019-04-30T22:09:43.380Z,71.14
2019-04-30T22:13:48.969Z,70.87
2019-04-30T22:17:53.979Z,70.88
2019-04-30T22:21:59.463Z,70.83
2019-04-30T22:26:03.773Z,70.90
2019-04-30T22:30:08.603Z,70.73
2019-04-30T22:34:12.904Z,70.85
2019-04-30T22:38:20.508Z,70.61
2019-04-30T22:42:33.903Z,70.39
2019-04-30T22:46:39.368Z,70.19
2019-04-30T22:50:43.790Z,69.87
2019-04-30T22:54:48.205Z,69.63
2019-04-30T22:58:52.468Z,69.23
2019-04-30T23:02:59.830Z,69.42
2019-04-30T23:07:04.385Z,68.71
2019-04-30T23:11:08.935Z,68.77
2019-04-30T23:15:15.150Z,68.50
2019-04-30T23:19:19.434Z,68.53
2019-04-30T23:23:23.691Z,68.13
2019-04-30T23:27:27.967Z,68.44
2019-04-30T23:31:32.205Z,68.28
2019-04-30T23:35:36.466Z,68.14
2019-04-30T23:39:40.684Z,68.03
2019-04-30T23:43:44.934Z,67.82
2019-04-30T23:47:49.212Z,67.99
2019-04-30T23:51:53.457Z,67.81
2019-04-30T23:55:58.715Z,67.85
